Time;durP1;ratioP1;P1;durP2;ratioP2;P2;SDS_P1;SDS_P2;PMS_P1;PMS_P2;Temp;Humidity;BMP_temperature;BMP_pressure;BME280_temperature;BME280_humidity;BME280_pressure;Samples;Min_cycle;Max_cycle;Signal;HPM_P1;HPM_P2
2023/08/21 00:01:25;;;;;;;13.10;6.75;;;;;;;-145.69;nan;51836.44;5114317;28;20203;-83
2023/08/21 00:03:51;;;;;;;9.50;6.28;;;;;;;-145.69;nan;51856.25;5111840;27;20702;-83
2023/08/21 00:06:24;;;;;;;12.38;6.68;;;;;;;-145.69;nan;51828.53;5113540;28;20281;-83
2023/08/21 00:08:50;;;;;;;11.98;7.07;;;;;;;-145.69;nan;51846.34;5114006;28;20250;-84
2023/08/21 00:11:21;;;;;;;11.77;6.65;;;;;;;-145.69;nan;51794.88;5114781;28;20204;-83
2023/08/21 00:13:50;;;;;;;7.50;6.00;;;;;;;-145.69;nan;51872.09;5113913;28;20236;-83
2023/08/21 00:16:26;;;;;;;11.57;6.22;;;;;;;-145.69;nan;51846.34;5095541;28;20193;-84
2023/08/21 00:18:53;;;;;;;11.77;6.90;;;;;;;-145.69;nan;51850.31;5096702;28;20193;-83
2023/08/21 00:21:20;;;;;;;8.85;6.68;;;;;;;-145.69;nan;51850.31;5095985;28;20208;-83
2023/08/21 00:23:46;;;;;;;12.18;6.65;;;;;;;-145.69;nan;51834.47;5114085;28;20706;-83
2023/08/21 00:26:13;;;;;;;13.25;7.05;;;;;;;-145.69;nan;51844.38;5115688;28;20197;-82
2023/08/21 00:28:44;;;;;;;10.35;6.28;;;;;;;-145.69;nan;51850.31;5114448;28;20227;-83
2023/08/21 00:31:10;;;;;;;11.98;6.68;;;;;;;-145.69;nan;51828.53;5114680;28;20205;-83
2023/08/21 00:33:39;;;;;;;9.50;6.65;;;;;;;-145.69;nan;51864.16;5113475;28;20213;-83
2023/08/21 00:36:06;;;;;;;15.00;6.40;;;;;;;-145.69;nan;51852.28;5113981;28;20219;-83
2023/08/21 00:38:32;;;;;;;11.48;6.43;;;;;;;-145.69;nan;51832.50;5113157;28;20679;-83
2023/08/21 00:40:59;;;;;;;11.50;6.63;;;;;;;-145.69;nan;51826.56;5113390;28;20584;-83
2023/08/21 00:43:25;;;;;;;11.80;6.95;;;;;;;-145.69;nan;51828.53;5114664;28;20221;-83
2023/08/21 00:45:54;;;;;;;13.77;7.03;;;;;;;-145.69;nan;51842.38;5112762;28;20193;-82
2023/08/21 00:48:21;;;;;;;12.65;6.18;;;;;;;-145.69;nan;51850.31;5102475;28;20202;-84
2023/08/21 00:50:49;;;;;;;13.25;6.28;;;;;;;-145.69;nan;51832.50;5114296;28;20193;-83
2023/08/21 00:53:16;;;;;;;15.93;6.47;;;;;;;-145.69;nan;51846.34;5113858;28;20220;-83
2023/08/21 00:55:46;;;;;;;13.63;6.65;;;;;;;-145.69;nan;51842.38;5113208;28;20202;-82
2023/08/21 00:58:13;;;;;;;10.95;6.25;;;;;;;-145.69;nan;51858.22;5113904;28;20660;-83
2023/08/21 01:00:47;;;;;;;11.30;6.28;;;;;;;-145.69;nan;51850.31;5113798;28;20201;-83
2023/08/21 01:03:15;;;;;;;11.15;6.88;;;;;;;-145.69;nan;51852.28;5113172;28;20198;-83
2023/08/21 01:05:41;;;;;;;13.02;6.70;;;;;;;-145.69;nan;51866.16;5094363;28;20204;-83
2023/08/21 01:08:15;;;;;;;9.50;6.97;;;;;;;-145.69;nan;51836.44;5113398;28;20533;-83
2023/08/21 01:10:51;;;;;;;10.25;7.15;;;;;;;-145.69;nan;51848.34;5094377;28;20223;-82
2023/08/21 01:13:25;;;;;;;11.50;7.40;;;;;;;-145.69;nan;51824.56;5112704;28;20215;-83
2023/08/21 01:15:53;;;;;;;11.60;6.38;;;;;;;-145.69;nan;51862.19;5112686;28;20201;-82
2023/08/21 01:18:22;;;;;;;11.90;6.80;;;;;;;-145.69;nan;51862.19;5112616;28;20193;-83
2023/08/21 01:20:49;;;;;;;9.30;6.43;;;;;;;-145.69;nan;51854.28;5113787;28;20201;-82
2023/08/21 01:23:30;;;;;;;13.15;6.93;;;;;;;-145.69;nan;51860.22;5116971;28;20197;-82
2023/08/21 01:25:57;;;;;;;16.00;6.60;;;;;;;-145.69;nan;51832.50;5099028;28;20208;-82
2023/08/21 01:28:23;;;;;;;12.75;6.78;;;;;;;-145.69;nan;51846.34;5117237;28;20194;-82
2023/08/21 01:30:53;;;;;;;11.48;7.13;;;;;;;-145.69;nan;51844.38;5116955;28;20204;-83
2023/08/21 01:33:22;;;;;;;11.63;7.25;;;;;;;-145.69;nan;51848.34;5116826;28;20201;-82
2023/08/21 01:35:49;;;;;;;10.05;6.78;;;;;;;-145.69;nan;51882.00;5117048;28;20198;-82
2023/08/21 01:38:15;;;;;;;11.27;6.63;;;;;;;-145.69;nan;51880.00;5099262;28;20208;-82
2023/08/21 01:40:43;;;;;;;12.52;7.35;;;;;;;-145.69;nan;51880.00;5114453;28;20194;-82
2023/08/21 01:43:10;;;;;;;15.73;8.15;;;;;;;-145.69;nan;51885.94;5116642;28;20201;-83
2023/08/21 01:45:36;;;;;;;11.75;6.70;;;;;;;-145.69;nan;51893.88;5116911;28;20229;-83
2023/08/21 01:48:03;;;;;;;11.98;6.88;;;;;;;-145.69;nan;51866.16;5098575;28;20201;-82
2023/08/21 01:50:30;;;;;;;12.68;6.65;;;;;;;-145.69;nan;51840.41;5116656;28;20575;-82
2023/08/21 01:52:56;;;;;;;9.75;6.93;;;;;;;-145.69;nan;51887.94;5116649;28;20435;-82
2023/08/21 01:55:25;;;;;;;13.75;7.00;;;;;;;-145.69;nan;51874.06;5116887;28;20208;-82
2023/08/21 01:57:53;;;;;;;11.63;6.97;;;;;;;-145.69;nan;51856.25;5117465;28;20602;-83
2023/08/21 02:00:19;;;;;;;10.55;6.63;;;;;;;-145.69;nan;51874.06;5113525;28;20202;-82
2023/08/21 02:02:46;;;;;;;13.35;6.90;;;;;;;-145.69;nan;51868.13;5117786;27;20196;-82
2023/08/21 02:05:12;;;;;;;11.07;7.30;;;;;;;-145.69;nan;51872.09;5116457;28;20683;-82
2023/08/21 02:07:39;;;;;;;9.57;6.72;;;;;;;-145.69;nan;51842.38;5116740;28;20197;-82
2023/08/21 02:10:06;;;;;;;15.18;7.53;;;;;;;-145.69;nan;51889.91;5115940;28;20205;-82
2023/08/21 02:12:33;;;;;;;14.60;7.70;;;;;;;-145.69;nan;51870.13;5115796;28;20198;-82
2023/08/21 02:15:01;;;;;;;16.33;8.25;;;;;;;-145.69;nan;51832.50;5115106;28;20233;-82
2023/08/21 02:17:27;;;;;;;11.30;8.27;;;;;;;-145.69;nan;51846.34;5115593;28;20197;-83
2023/08/21 02:19:54;;;;;;;11.27;7.53;;;;;;;-145.69;nan;51866.16;5117730;28;20197;-83
2023/08/21 02:22:20;;;;;;;11.15;7.35;;;;;;;-145.69;nan;51866.16;5098976;28;20205;-82
2023/08/21 02:24:47;;;;;;;12.43;7.68;;;;;;;-145.69;nan;51889.91;5114955;28;20552;-82
2023/08/21 02:27:13;;;;;;;13.68;7.10;;;;;;;-145.69;nan;51876.06;5114623;28;20198;-81
2023/08/21 02:29:40;;;;;;;14.70;7.65;;;;;;;-145.69;nan;51844.38;5114829;28;20204;-83
2023/08/21 02:32:08;;;;;;;12.35;7.03;;;;;;;-145.69;nan;51878.03;5114506;28;20201;-82
2023/08/21 02:34:34;;;;;;;11.18;7.22;;;;;;;-145.69;nan;51880.00;5096040;28;20189;-83
2023/08/21 02:37:01;;;;;;;10.73;7.15;;;;;;;-145.69;nan;51872.09;5115544;28;20202;-82
2023/08/21 02:39:27;;;;;;;8.80;7.15;;;;;;;-145.69;nan;51870.13;5114612;28;20198;-81
2023/08/21 02:41:54;;;;;;;10.10;7.38;;;;;;;-145.69;nan;51885.94;5114360;28;20208;-82
2023/08/21 02:44:20;;;;;;;10.07;7.13;;;;;;;-145.69;nan;51868.13;5114566;28;20229;-81
2023/08/21 02:46:47;;;;;;;10.35;7.22;;;;;;;-145.69;nan;51866.16;5114304;28;20208;-81
2023/08/21 02:49:15;;;;;;;19.63;7.97;;;;;;;-145.69;nan;51905.75;5114284;28;20190;-82
2023/08/21 02:51:41;;;;;;;12.82;8.10;;;;;;;-145.69;nan;51903.78;5113851;28;20201;-82
2023/08/21 02:54:08;;;;;;;10.30;7.53;;;;;;;-145.69;nan;51860.22;5114242;28;20246;-82
2023/08/21 02:56:34;;;;;;;12.35;7.53;;;;;;;-145.69;nan;51882.00;5114304;28;20209;-82
2023/08/21 02:59:01;;;;;;;12.18;7.30;;;;;;;-145.69;nan;51854.28;5113212;28;20958;-82
2023/08/21 03:01:27;;;;;;;15.05;8.05;;;;;;;-145.69;nan;51885.94;5114682;28;20250;-82
2023/08/21 03:03:54;;;;;;;12.60;8.40;;;;;;;-145.69;nan;51915.66;5114563;28;20194;-82
2023/08/21 03:06:22;;;;;;;14.80;8.98;;;;;;;-145.69;nan;51882.00;5114379;28;20212;-82
2023/08/21 03:08:48;;;;;;;12.95;8.55;;;;;;;-145.69;nan;51895.84;5114129;28;20207;-82
2023/08/21 03:11:15;;;;;;;12.48;8.57;;;;;;;-145.69;nan;51889.91;5113267;28;20193;-82
2023/08/21 03:13:43;;;;;;;16.83;8.13;;;;;;;-145.69;nan;51858.22;5076164;28;1084611;-83
2023/08/21 03:16:10;;;;;;;12.18;7.82;;;;;;;-145.69;nan;51887.94;5115247;28;20205;-82
2023/08/21 03:18:55;;;;;;;11.43;7.55;;;;;;;-145.69;nan;51868.13;5115231;28;20198;-82
2023/08/21 03:21:23;;;;;;;10.18;7.07;;;;;;;-145.69;nan;51889.91;5094851;28;20603;-83
2023/08/21 03:23:51;;;;;;;12.43;7.28;;;;;;;-145.69;nan;51889.91;5107143;28;20599;-82
2023/08/21 03:26:18;;;;;;;11.95;7.00;;;;;;;-145.69;nan;51897.84;5115673;28;20221;-83
2023/08/21 03:28:44;;;;;;;8.20;6.60;;;;;;;-145.69;nan;51895.84;5119539;28;20208;-83
2023/08/21 03:31:10;;;;;;;10.00;7.10;;;;;;;-145.69;nan;51911.69;5117371;28;20204;-82
2023/08/21 03:33:37;;;;;;;10.90;7.22;;;;;;;-145.69;nan;51897.84;5116327;28;20200;-83
2023/08/21 03:36:04;;;;;;;12.30;7.30;;;;;;;-145.69;nan;51905.75;5116573;28;20529;-82
2023/08/21 03:38:32;;;;;;;13.70;7.45;;;;;;;-145.69;nan;51911.69;5117428;28;20213;-83
2023/08/21 03:40:58;;;;;;;15.32;8.43;;;;;;;-145.69;nan;51868.13;5115720;28;20190;-83
2023/08/21 03:43:25;;;;;;;14.43;8.32;;;;;;;-145.69;nan;51893.88;5115437;28;20197;-83
2023/08/21 03:45:51;;;;;;;13.10;8.07;;;;;;;-145.69;nan;51917.63;5115754;28;20225;-83
2023/08/21 03:48:18;;;;;;;18.05;9.02;;;;;;;-145.69;nan;51885.94;5095643;28;20586;-83
2023/08/21 03:50:44;;;;;;;14.43;9.18;;;;;;;-145.69;nan;51885.94;5094602;28;20204;-82
2023/08/21 03:53:11;;;;;;;11.52;8.10;;;;;;;-145.69;nan;51895.84;5094518;28;20209;-82
2023/08/21 03:55:39;;;;;;;13.80;8.30;;;;;;;-145.69;nan;51880.00;5111756;28;20201;-82
2023/08/21 03:58:05;;;;;;;12.35;8.85;;;;;;;-145.69;nan;51905.75;5114737;28;20214;-83
2023/08/21 04:00:31;;;;;;;10.15;7.32;;;;;;;-145.69;nan;51878.03;5116474;28;20304;-83
2023/08/21 04:02:58;;;;;;;13.20;8.68;;;;;;;-145.69;nan;51905.75;5131621;27;20201;-84
2023/08/21 04:05:25;;;;;;;10.15;7.53;;;;;;;-145.69;nan;51895.84;5123304;27;20221;-82
2023/08/21 04:07:51;;;;;;;11.82;7.72;;;;;;;-145.69;nan;51911.69;5118291;28;20705;-83
2023/08/21 04:10:18;;;;;;;14.57;8.13;;;;;;;-145.69;nan;51889.91;5117651;28;20552;-82
2023/08/21 04:12:46;;;;;;;12.02;8.07;;;;;;;-145.69;nan;51925.56;5114305;28;20198;-83
2023/08/21 04:15:13;;;;;;;14.68;8.45;;;;;;;-145.69;nan;51893.88;5114908;28;20229;-84
2023/08/21 04:17:39;;;;;;;12.40;7.78;;;;;;;-145.69;nan;51907.72;5114976;28;20196;-83
2023/08/21 04:20:07;;;;;;;11.45;8.25;;;;;;;-145.69;nan;51889.91;5113505;28;20204;-83
2023/08/21 04:22:34;;;;;;;11.85;8.55;;;;;;;-145.69;nan;51897.84;5113948;28;20221;-82
2023/08/21 04:25:01;;;;;;;14.07;7.80;;;;;;;-145.69;nan;51923.56;5114014;28;20592;-82
2023/08/21 04:27:28;;;;;;;11.00;8.52;;;;;;;-145.69;nan;51887.94;5113973;28;20197;-82
2023/08/21 04:29:55;;;;;;;13.43;8.13;;;;;;;-145.69;nan;51901.78;5113139;28;20197;-81
2023/08/21 04:32:22;;;;;;;17.98;8.38;;;;;;;-145.69;nan;51862.19;5114070;28;20666;-82
2023/08/21 04:34:48;;;;;;;14.57;9.18;;;;;;;-145.69;nan;51921.59;5113126;28;20576;-82
2023/08/21 04:37:15;;;;;;;12.95;8.70;;;;;;;-145.69;nan;51880.00;5113971;28;20221;-83
2023/08/21 04:39:41;;;;;;;13.52;8.70;;;;;;;-145.69;nan;51895.84;5113590;28;20238;-82
2023/08/21 04:42:08;;;;;;;14.95;8.70;;;;;;;-145.69;nan;51911.69;5113969;28;20674;-82
2023/08/21 04:44:34;;;;;;;14.77;8.63;;;;;;;-145.69;nan;51878.03;5113645;28;20206;-83
2023/08/21 04:47:20;;;;;;;15.23;8.60;;;;;;;-145.69;nan;51891.88;5114068;28;20205;-83
2023/08/21 04:49:46;;;;;;;11.90;7.95;;;;;;;-145.69;nan;51909.72;5113960;28;20536;-83
2023/08/21 04:52:13;;;;;;;13.88;8.75;;;;;;;-145.69;nan;51889.91;5113840;28;20201;-82
2023/08/21 04:54:39;;;;;;;16.50;9.00;;;;;;;-145.69;nan;51899.81;5115824;28;20197;-83
2023/08/21 04:57:06;;;;;;;12.35;8.18;;;;;;;-145.69;nan;51899.81;5118715;28;20197;-83
2023/08/21 04:59:32;;;;;;;13.15;8.18;;;;;;;-145.69;nan;51913.69;5117101;28;20201;-83
2023/08/21 05:01:59;;;;;;;12.57;8.85;;;;;;;-145.69;nan;51939.41;5115759;28;20293;-83
2023/08/21 05:04:27;;;;;;;10.77;7.95;;;;;;;-145.69;nan;51915.66;5117478;28;20565;-84
2023/08/21 05:06:53;;;;;;;13.00;8.48;;;;;;;-145.69;nan;51897.84;5096058;28;20198;-83
2023/08/21 05:09:20;;;;;;;10.95;8.27;;;;;;;-145.69;nan;51901.78;5094836;28;20209;-83
2023/08/21 05:11:46;;;;;;;15.88;8.98;;;;;;;-145.69;nan;51882.00;5086969;28;20185;-83
2023/08/21 05:14:13;;;;;;;11.73;8.35;;;;;;;-145.69;nan;51901.78;5116160;28;20222;-82
2023/08/21 05:16:39;;;;;;;13.80;8.88;;;;;;;-145.69;nan;51897.84;5114555;28;20224;-83
2023/08/21 05:19:06;;;;;;;16.00;9.38;;;;;;;-145.69;nan;51893.88;5095468;28;20206;-82
2023/08/21 05:21:33;;;;;;;11.35;8.05;;;;;;;-145.69;nan;51891.88;5115376;28;20661;-83
2023/08/21 05:24:00;;;;;;;14.20;8.70;;;;;;;-145.69;nan;51933.47;5113978;28;20208;-82
2023/08/21 05:26:26;;;;;;;14.77;8.98;;;;;;;-145.69;nan;51889.91;5113939;28;20202;-82
2023/08/21 05:28:53;;;;;;;19.40;9.13;;;;;;;-145.69;nan;51901.78;5114752;28;20594;-83
2023/08/21 05:31:19;;;;;;;12.70;8.77;;;;;;;-145.69;nan;51905.75;5115963;28;20205;-84
2023/08/21 05:33:46;;;;;;;12.52;8.55;;;;;;;-145.69;nan;51903.78;5098966;28;20205;-82
2023/08/21 05:36:12;;;;;;;14.20;9.40;;;;;;;-145.69;nan;51885.94;5114698;28;20318;-83
2023/08/21 05:38:40;;;;;;;12.45;8.38;;;;;;;-145.69;nan;51882.00;5113983;28;20208;-83
2023/08/21 05:41:07;;;;;;;10.68;8.43;;;;;;;-145.69;nan;51917.63;5115594;28;20206;-82
2023/08/21 05:43:35;;;;;;;14.05;8.70;;;;;;;-145.69;nan;51882.00;5104217;28;20186;-83
2023/08/21 05:46:01;;;;;;;12.63;9.00;;;;;;;-145.69;nan;51883.97;5105520;28;20288;-83
2023/08/21 05:48:28;;;;;;;12.98;9.18;;;;;;;-145.69;nan;51883.97;5114746;28;20213;-83
2023/08/21 05:50:54;;;;;;;14.63;10.20;;;;;;;-145.69;nan;51901.78;5112630;28;20194;-82
2023/08/21 05:53:21;;;;;;;17.48;9.65;;;;;;;-145.69;nan;51862.19;5116867;28;20236;-84
2023/08/21 05:55:49;;;;;;;13.80;9.13;;;;;;;-145.69;nan;51870.13;5116235;28;20675;-84
2023/08/21 05:58:15;;;;;;;12.30;8.98;;;;;;;-145.69;nan;51862.19;5129571;28;20266;-83
2023/08/21 06:00:42;;;;;;;14.82;9.82;;;;;;;-145.69;nan;51893.88;5111496;28;20277;-83
2023/08/21 06:03:08;;;;;;;13.25;8.80;;;;;;;-145.69;nan;51889.91;5095189;28;20197;-83
2023/08/21 06:05:35;;;;;;;13.85;8.27;;;;;;;-145.69;nan;51858.22;5113092;28;20259;-83
2023/08/21 06:08:02;;;;;;;11.10;8.75;;;;;;;-145.69;nan;51895.84;5116344;28;20202;-83
2023/08/21 06:10:28;;;;;;;12.07;9.15;;;;;;;-145.69;nan;51860.22;5117158;28;20246;-82
2023/08/21 06:12:56;;;;;;;12.65;8.88;;;;;;;-145.69;nan;51878.03;5117226;28;20209;-82
2023/08/21 06:15:23;;;;;;;12.98;8.85;;;;;;;-145.69;nan;51862.19;5116151;28;20233;-82
2023/08/21 06:17:49;;;;;;;11.50;8.50;;;;;;;-145.69;nan;51870.13;5116844;28;20201;-82
2023/08/21 06:20:16;;;;;;;10.57;8.50;;;;;;;-145.69;nan;51874.06;5100561;28;20197;-82
2023/08/21 06:22:42;;;;;;;12.23;8.75;;;;;;;-145.69;nan;51870.13;5116576;28;20204;-82
2023/08/21 06:25:09;;;;;;;11.35;8.25;;;;;;;-145.69;nan;51866.16;5117113;28;20614;-82
2023/08/21 06:27:36;;;;;;;12.40;8.68;;;;;;;-145.69;nan;51858.22;5116465;28;20197;-82
2023/08/21 06:30:04;;;;;;;13.88;9.00;;;;;;;-145.69;nan;51872.09;5116417;28;20205;-82
2023/08/21 06:32:30;;;;;;;10.68;8.18;;;;;;;-145.69;nan;51854.28;5116740;28;20202;-82
2023/08/21 06:34:57;;;;;;;10.35;8.27;;;;;;;-145.69;nan;51852.28;5116355;28;20197;-82
2023/08/21 06:37:23;;;;;;;12.75;8.55;;;;;;;-145.69;nan;51850.31;5117220;28;20197;-82
2023/08/21 06:39:50;;;;;;;13.65;8.48;;;;;;;-145.69;nan;51834.47;5116805;28;20211;-82
2023/08/21 06:42:16;;;;;;;10.75;8.35;;;;;;;-145.69;nan;51860.22;5116713;28;20205;-82
2023/08/21 06:44:43;;;;;;;14.57;8.40;;;;;;;-145.69;nan;51854.28;5117162;28;20197;-82
2023/08/21 06:47:10;;;;;;;9.93;7.90;;;;;;;-145.69;nan;51856.25;5117222;28;20210;-82
2023/08/21 06:49:37;;;;;;;11.60;8.00;;;;;;;-145.69;nan;51846.34;5117109;28;20193;-82
2023/08/21 06:52:04;;;;;;;12.55;7.85;;;;;;;-145.69;nan;51850.31;5117459;28;20193;-82
2023/08/21 06:54:33;;;;;;;11.25;7.50;;;;;;;-145.69;nan;51850.31;5117295;28;20201;-82
2023/08/21 06:57:00;;;;;;;11.43;7.93;;;;;;;-145.69;nan;51844.38;5116871;28;20229;-82
2023/08/21 06:59:26;;;;;;;9.88;7.05;;;;;;;-145.69;nan;51850.31;5117593;28;20233;-82
2023/08/21 07:01:53;;;;;;;9.02;6.93;;;;;;;-145.69;nan;51852.28;5117099;28;20193;-83
2023/08/21 07:04:21;;;;;;;9.90;6.75;;;;;;;-145.69;nan;51826.56;5117877;28;20656;-82
2023/08/21 07:06:47;;;;;;;12.88;7.00;;;;;;;-145.69;nan;51808.72;5118932;28;20201;-82
2023/08/21 07:09:17;;;;;;;9.48;6.70;;;;;;;-145.69;nan;51814.66;5119247;28;20197;-82
2023/08/21 07:11:46;;;;;;;12.13;6.78;;;;;;;-145.69;nan;51788.94;5117789;28;20197;-85
2023/08/21 07:14:13;;;;;;;14.23;7.20;;;;;;;-145.69;nan;51846.34;5116504;28;20232;-83
2023/08/21 07:16:40;;;;;;;12.45;6.57;;;;;;;-145.69;nan;51814.66;5116409;28;20316;-84
2023/08/21 07:19:08;;;;;;;10.20;6.63;;;;;;;-145.69;nan;51796.84;5115035;28;20194;-84
2023/08/21 07:21:38;;;;;;;13.77;6.15;;;;;;;-145.69;nan;51824.56;5116342;28;20197;-82
2023/08/21 07:24:08;;;;;;;11.90;6.90;;;;;;;-145.69;nan;51790.91;5116807;28;20193;-83
2023/08/21 07:26:35;;;;;;;9.90;6.75;;;;;;;-145.69;nan;51794.88;5116011;28;20212;-83
2023/08/21 07:29:03;;;;;;;7.63;5.75;;;;;;;-145.69;nan;51810.72;5115900;28;20208;-83
2023/08/21 07:31:30;;;;;;;9.27;6.68;;;;;;;-145.69;nan;51802.78;5115714;28;20201;-83
2023/08/21 07:33:57;;;;;;;9.20;6.50;;;;;;;-145.69;nan;51798.81;5115495;28;20296;-83
2023/08/21 07:36:23;;;;;;;9.50;6.10;;;;;;;-145.69;nan;51769.13;5096102;28;20577;-83
2023/08/21 07:38:54;;;;;;;10.32;5.65;;;;;;;-145.69;nan;51794.88;5114957;28;20202;-83
2023/08/21 07:41:20;;;;;;;8.55;6.20;;;;;;;-145.69;nan;51822.59;5115431;28;20193;-83
2023/08/21 07:43:47;;;;;;;8.57;6.32;;;;;;;-145.69;nan;51790.91;5115222;28;20591;-83
2023/08/21 07:46:18;;;;;;;8.27;6.07;;;;;;;-145.69;nan;51757.25;5115328;28;20288;-83
2023/08/21 07:48:45;;;;;;;13.80;6.55;;;;;;;-145.69;nan;51771.09;5115122;28;20196;-81
2023/08/21 07:51:14;;;;;;;10.00;5.90;;;;;;;-145.69;nan;51773.09;5114925;28;20209;-82
2023/08/21 07:53:41;;;;;;;9.25;5.82;;;;;;;-145.69;nan;51790.91;5114695;28;20200;-83
2023/08/21 07:56:09;;;;;;;9.88;6.03;;;;;;;-145.69;nan;51786.94;5114390;28;20696;-82
2023/08/21 07:58:35;;;;;;;10.63;5.90;;;;;;;-145.69;nan;51779.03;5114574;28;20204;-83
2023/08/21 08:01:04;;;;;;;7.85;5.65;;;;;;;-145.69;nan;51763.19;5112359;28;20556;-83
2023/08/21 08:03:31;;;;;;;9.52;5.85;;;;;;;-145.69;nan;51763.19;5115020;27;20209;-83
2023/08/21 08:05:57;;;;;;;18.13;5.90;;;;;;;-145.69;nan;51755.25;5114187;28;20236;-83
2023/08/21 08:08:25;;;;;;;13.45;6.47;;;;;;;-145.69;nan;51790.91;5114222;28;20201;-83
2023/08/21 08:10:51;;;;;;;8.80;6.03;;;;;;;-145.69;nan;51779.03;5114553;28;20202;-83
2023/08/21 08:13:19;;;;;;;13.02;5.93;;;;;;;-145.69;nan;51735.47;5113955;28;20208;-83
2023/08/21 08:15:45;;;;;;;12.23;5.72;;;;;;;-145.69;nan;51781.00;5114005;28;20572;-83
2023/08/21 08:18:12;;;;;;;9.23;5.60;;;;;;;-145.69;nan;51747.34;5113994;28;20564;-83
2023/08/21 08:20:39;;;;;;;10.77;5.80;;;;;;;-145.69;nan;51747.34;5114126;28;20250;-83
2023/08/21 08:23:06;;;;;;;12.65;6.13;;;;;;;-145.69;nan;51741.41;5114006;28;20610;-83
2023/08/21 08:25:33;;;;;;;9.20;5.90;;;;;;;-145.69;nan;51743.38;5113761;28;20189;-83
2023/08/21 08:27:59;;;;;;;9.23;6.18;;;;;;;-145.69;nan;51767.16;5113727;28;20205;-83
2023/08/21 08:30:27;;;;;;;6.85;5.60;;;;;;;-145.69;nan;51761.22;5113610;28;20208;-82
2023/08/21 08:32:54;;;;;;;9.45;5.78;;;;;;;-145.69;nan;51759.22;5113326;28;20193;-83
2023/08/21 08:35:21;;;;;;;15.35;5.95;;;;;;;-145.69;nan;51741.41;5095342;28;20238;-84
2023/08/21 08:37:47;;;;;;;10.65;5.90;;;;;;;-145.69;nan;51739.44;5111781;28;20221;-83
2023/08/21 08:40:14;;;;;;;7.75;5.32;;;;;;;-145.69;nan;51743.38;5111917;28;20275;-83
2023/08/21 08:42:40;;;;;;;9.68;5.90;;;;;;;-145.69;nan;51755.25;5111772;28;20227;-83
2023/08/21 08:45:08;;;;;;;9.27;5.72;;;;;;;-145.69;nan;51751.31;5111700;28;20201;-84
2023/08/21 08:47:36;;;;;;;9.23;5.90;;;;;;;-145.69;nan;51689.94;5111915;28;20197;-83
2023/08/21 08:50:04;;;;;;;10.20;5.30;;;;;;;-145.69;nan;51735.47;5111757;28;20201;-84
2023/08/21 08:52:34;;;;;;;10.02;5.63;;;;;;;-145.69;nan;51711.72;5112319;28;20655;-84
2023/08/21 08:55:02;;;;;;;10.55;5.78;;;;;;;-145.69;nan;51743.38;5113172;28;20193;-83
2023/08/21 08:57:28;;;;;;;8.38;5.53;;;;;;;-145.69;nan;51741.41;5113503;28;20332;-82
2023/08/21 08:59:55;;;;;;;9.68;5.65;;;;;;;-145.69;nan;51739.44;5113565;28;20224;-82
2023/08/21 09:02:22;;;;;;;8.15;5.90;;;;;;;-145.69;nan;51723.59;5113517;28;20198;-84
2023/08/21 09:04:49;;;;;;;12.52;5.25;;;;;;;-145.69;nan;51715.66;5095474;28;20564;-83
2023/08/21 09:07:18;;;;;;;8.15;5.68;;;;;;;-145.69;nan;51703.78;5113104;28;20197;-83
2023/08/21 09:09:49;;;;;;;8.27;5.53;;;;;;;-145.69;nan;51703.78;5113258;28;20556;-84
2023/08/21 09:12:16;;;;;;;8.85;5.78;;;;;;;-145.69;nan;51711.72;5112992;28;20604;-83
2023/08/21 09:14:44;;;;;;;11.18;6.38;;;;;;;-145.69;nan;51709.72;5112923;28;20225;-83
2023/08/21 09:17:11;;;;;;;9.10;6.20;;;;;;;-145.69;nan;51703.78;5112386;28;20580;-83
2023/08/21 09:19:37;;;;;;;9.55;5.57;;;;;;;-145.69;nan;51727.53;5113220;28;20204;-84
2023/08/21 09:22:11;;;;;;;9.82;5.70;;;;;;;-145.69;nan;51693.88;5112981;28;20871;-83
2023/08/21 09:24:38;;;;;;;9.95;5.78;;;;;;;-145.69;nan;51701.81;5113243;28;20198;-84
2023/08/21 09:27:05;;;;;;;7.50;5.13;;;;;;;-145.69;nan;51719.63;5113317;28;20743;-84
2023/08/21 09:29:39;;;;;;;9.60;5.80;;;;;;;-145.69;nan;51691.91;5112854;28;20197;-83
2023/08/21 09:32:06;;;;;;;8.88;5.75;;;;;;;-145.69;nan;51715.66;5113159;28;20200;-84
2023/08/21 09:34:36;;;;;;;12.60;6.45;;;;;;;-145.69;nan;51695.88;5113021;28;20202;-84
2023/08/21 09:37:06;;;;;;;9.60;5.72;;;;;;;-145.69;nan;51687.94;5112814;28;20256;-83
2023/08/21 09:39:36;;;;;;;10.20;5.63;;;;;;;-145.69;nan;51703.78;5112659;28;20817;-83
2023/08/21 09:42:05;;;;;;;9.25;5.25;;;;;;;-145.69;nan;51699.81;5113885;28;20197;-85
2023/08/21 09:44:36;;;;;;;10.93;5.75;;;;;;;-145.69;nan;51670.13;5115596;28;20197;-82
2023/08/21 09:47:03;;;;;;;11.40;5.68;;;;;;;-145.69;nan;51672.09;5117008;28;20220;-82
2023/08/21 09:49:30;;;;;;;8.88;5.28;;;;;;;-145.69;nan;51680.03;5116977;28;20190;-83
2023/08/21 09:51:58;;;;;;;7.70;5.30;;;;;;;-145.69;nan;51703.78;5117082;28;20197;-84
2023/08/21 09:54:26;;;;;;;9.15;5.70;;;;;;;-145.69;nan;51691.91;5116359;28;20555;-84
2023/08/21 09:56:54;;;;;;;9.25;5.00;;;;;;;-145.69;nan;51658.25;5098571;28;20710;-84
2023/08/21 09:59:22;;;;;;;8.82;5.55;;;;;;;-145.69;nan;51691.91;5098438;28;20233;-84
2023/08/21 10:01:51;;;;;;;11.02;5.57;;;;;;;-145.69;nan;51705.75;5115007;28;20203;-82
2023/08/21 10:04:18;;;;;;;11.90;5.72;;;;;;;-145.69;nan;51691.91;5102820;28;20235;-83
2023/08/21 10:06:46;;;;;;;13.07;5.88;;;;;;;-145.69;nan;51680.03;5115641;28;20200;-83
2023/08/21 10:09:15;;;;;;;8.27;5.35;;;;;;;-145.69;nan;51682.00;5116255;28;20204;-83
2023/08/21 10:11:43;;;;;;;12.60;5.60;;;;;;;-145.69;nan;51674.09;5119584;27;20208;-83
2023/08/21 10:14:12;;;;;;;8.18;5.25;;;;;;;-145.69;nan;51664.19;5098278;28;20258;-83
2023/08/21 10:16:38;;;;;;;13.65;5.70;;;;;;;-145.69;nan;51699.81;5116466;28;20547;-83
2023/08/21 10:19:06;;;;;;;8.65;5.53;;;;;;;-145.69;nan;51691.91;5116481;28;20205;-83
2023/08/21 10:21:36;;;;;;;9.32;5.28;;;;;;;-145.69;nan;51693.88;5116577;28;20205;-83
2023/08/21 10:24:03;;;;;;;7.93;5.15;;;;;;;-145.69;nan;51652.31;5116639;28;20438;-83
2023/08/21 10:26:30;;;;;;;8.98;5.43;;;;;;;-145.69;nan;51683.97;5116141;28;20193;-83
2023/08/21 10:29:02;;;;;;;8.02;5.20;;;;;;;-145.69;nan;51662.22;5116311;28;20211;-84
2023/08/21 10:31:39;;;;;;;9.27;5.43;;;;;;;-145.69;nan;51662.22;5116110;28;20632;-84
2023/08/21 10:34:07;;;;;;;11.15;5.13;;;;;;;-145.69;nan;51670.13;5116514;28;20201;-81
2023/08/21 10:37:09;;;;;;;10.93;4.78;;;;;;;-145.69;nan;51640.44;5113791;28;20933;-83
2023/08/21 10:39:37;;;;;;;15.40;5.20;;;;;;;-145.69;nan;51634.47;5102976;28;20197;-84
2023/08/21 10:42:07;;;;;;;9.40;5.07;;;;;;;-145.69;nan;51600.81;5116393;28;20231;-84
2023/08/21 10:44:52;;;;;;;8.93;5.10;;;;;;;-145.69;nan;51642.41;5116591;28;20201;-83
2023/08/21 10:47:22;;;;;;;9.10;5.22;;;;;;;-145.69;nan;51652.31;5114970;28;20209;-85
2023/08/21 10:49:51;;;;;;;14.63;5.80;;;;;;;-145.69;nan;51638.44;5114914;28;20205;-84
2023/08/21 10:52:22;;;;;;;9.88;5.07;;;;;;;-145.69;nan;51648.34;5115952;28;20208;-83
2023/08/21 10:54:50;;;;;;;12.45;5.40;;;;;;;-145.69;nan;51656.25;5115970;28;20564;-84
2023/08/21 10:57:17;;;;;;;10.70;5.13;;;;;;;-145.69;nan;51672.09;5115521;28;20576;-84
2023/08/21 10:59:57;;;;;;;11.93;5.18;;;;;;;-145.69;nan;51644.38;5115674;28;20201;-85
2023/08/21 11:02:28;;;;;;;9.90;4.85;;;;;;;-145.69;nan;51630.53;5096686;28;20330;-85
2023/08/21 11:04:55;;;;;;;6.57;4.65;;;;;;;-145.69;nan;51640.44;5115239;28;20676;-84
2023/08/21 11:07:22;;;;;;;12.07;4.65;;;;;;;-145.69;nan;51652.31;5115217;28;20215;-85
2023/08/21 11:09:48;;;;;;;8.38;4.88;;;;;;;-145.69;nan;51632.50;5115401;28;20205;-85
2023/08/21 11:12:16;;;;;;;10.60;4.65;;;;;;;-145.69;nan;51612.72;5115463;28;20212;-84
2023/08/21 11:14:43;;;;;;;10.85;5.72;;;;;;;-145.69;nan;51652.31;5114613;28;20232;-85
2023/08/21 11:17:10;;;;;;;8.52;5.35;;;;;;;-145.69;nan;51624.59;5115707;28;20225;-84
2023/08/21 11:19:39;;;;;;;8.68;4.82;;;;;;;-145.69;nan;51632.50;5115388;28;20205;-85
2023/08/21 11:22:06;;;;;;;10.45;5.28;;;;;;;-145.69;nan;51638.44;5115258;28;20205;-84
2023/08/21 11:24:44;;;;;;;8.38;4.90;;;;;;;-145.69;nan;51626.56;5115114;28;20242;-84
2023/08/21 11:27:12;;;;;;;6.55;4.78;;;;;;;-145.69;nan;51624.59;5115020;28;20193;-84
2023/08/21 11:29:40;;;;;;;5.63;4.55;;;;;;;-145.69;nan;51588.94;5115052;28;20201;-83